createdAt,value
2022-11-23T00:01:12.451Z,8.35
2022-11-23T00:03:40.893Z,7.25
2022-11-23T00:06:11.025Z,3.83
2022-11-23T00:08:39.513Z,5.35
2022-11-23T00:11:08.047Z,6.15
2022-11-23T00:13:36.804Z,3.83
2022-11-23T00:16:07.185Z,5.70
2022-11-23T00:18:35.842Z,5.90
2022-11-23T00:21:07.636Z,3.08
2022-11-23T00:23:37.758Z,7.43
2022-11-23T00:26:06.794Z,4.45
2022-11-23T00:28:38.774Z,5.13
2022-11-23T00:31:07.688Z,3.30
2022-11-23T00:33:36.153Z,3.92
2022-11-23T00:36:05.409Z,5.65
2022-11-23T00:38:34.159Z,6.32
2022-11-23T00:41:04.719Z,4.97
2022-11-23T00:43:33.136Z,5.38
2022-11-23T00:46:08.652Z,3.72
2022-11-23T00:48:40.328Z,3.72
2022-11-23T00:51:10.774Z,3.53
2022-11-23T00:53:39.297Z,4.45
2022-11-23T00:56:09.496Z,5.57
2022-11-23T00:58:39.311Z,6.85
2022-11-23T01:01:09.396Z,4.13
2022-11-23T01:03:38.654Z,4.28
2022-11-23T01:06:08.023Z,4.22
2022-11-23T01:08:36.596Z,3.05
2022-11-23T01:11:06.102Z,4.95
2022-11-23T01:13:36.048Z,3.58
2022-11-23T01:16:04.772Z,5.03
2022-11-23T01:18:33.215Z,4.07
2022-11-23T01:21:02.793Z,3.65
2022-11-23T01:23:31.285Z,5.03
2022-11-23T01:26:00.286Z,6.13
2022-11-23T01:28:28.720Z,7.43
2022-11-23T01:31:04.681Z,5.43
2022-11-23T01:33:33.121Z,4.25
2022-11-23T01:36:01.652Z,5.32
2022-11-23T01:38:30.032Z,4.10
2022-11-23T01:40:58.442Z,3.75
2022-11-23T01:43:26.842Z,3.60
2022-11-23T01:45:59.440Z,4.47
2022-11-23T01:48:29.272Z,4.53
2022-11-23T01:50:58.582Z,5.38
2022-11-23T01:53:27.088Z,5.15
2022-11-23T01:55:57.488Z,3.83
2022-11-23T01:58:26.905Z,3.65
2022-11-23T02:00:55.484Z,4.57
2022-11-23T02:03:25.438Z,3.53
2022-11-23T02:06:00.100Z,3.20
2022-11-23T02:08:29.487Z,6.28
2022-11-23T02:10:58.117Z,5.00
2022-11-23T02:13:27.138Z,6.10
2022-11-23T02:15:56.792Z,5.50
2022-11-23T02:18:27.621Z,5.45
2022-11-23T02:20:56.070Z,5.03
2022-11-23T02:23:30.111Z,4.78
2022-11-23T02:26:02.205Z,5.40
2022-11-23T02:28:31.740Z,5.60
2022-11-23T02:31:00.241Z,5.55
2022-11-23T02:33:28.675Z,3.70
2022-11-23T02:35:59.008Z,6.35
2022-11-23T02:38:30.332Z,6.07
2022-11-23T02:40:58.914Z,5.13
2022-11-23T02:43:28.956Z,9.30
2022-11-23T02:45:58.331Z,11.98
2022-11-23T02:48:26.906Z,10.10
2022-11-23T02:50:55.362Z,12.48
2022-11-23T02:53:23.816Z,9.98
2022-11-23T02:55:52.274Z,12.10
2022-11-23T02:58:20.657Z,19.95
2022-11-23T03:00:50.497Z,16.27
2022-11-23T03:03:18.947Z,9.07
2022-11-23T03:05:47.345Z,7.75
2022-11-23T03:08:15.786Z,5.57
2022-11-23T03:10:44.217Z,7.15
2022-11-23T03:13:12.672Z,7.97
2022-11-23T03:15:41.073Z,8.05
2022-11-23T03:18:10.857Z,5.32
2022-11-23T03:20:39.351Z,6.43
2022-11-23T03:23:07.799Z,4.85
2022-11-23T03:25:36.187Z,5.32
2022-11-23T03:28:04.644Z,6.43
2022-11-23T03:30:33.081Z,5.55
2022-11-23T03:33:01.505Z,5.63
2022-11-23T03:35:31.270Z,5.43
2022-11-23T03:37:59.718Z,6.75
2022-11-23T03:40:28.146Z,4.72
2022-11-23T03:42:56.623Z,3.75
2022-11-23T03:45:25.039Z,6.78
2022-11-23T03:47:53.448Z,5.03
2022-11-23T03:50:21.845Z,4.10
2022-11-23T03:52:51.642Z,4.40
2022-11-23T03:55:20.019Z,5.15
2022-11-23T03:57:49.514Z,5.47
2022-11-23T04:00:18.277Z,4.22
2022-11-23T04:02:46.698Z,3.25
2022-11-23T04:05:15.111Z,4.53
2022-11-23T04:07:43.604Z,4.93
2022-11-23T04:10:13.402Z,3.90
2022-11-23T04:12:41.813Z,4.43
2022-11-23T04:15:10.555Z,4.18
2022-11-23T04:17:39.580Z,5.45
2022-11-23T04:20:08.793Z,5.03
2022-11-23T04:22:37.362Z,4.93
2022-11-23T04:25:06.215Z,4.03
2022-11-23T04:27:36.012Z,4.07
2022-11-23T04:30:04.449Z,3.60
2022-11-23T04:32:32.854Z,4.93
2022-11-23T04:35:01.259Z,5.40
2022-11-23T04:37:29.684Z,5.07
2022-11-23T04:39:58.149Z,4.90
2022-11-23T04:42:26.549Z,6.95
2022-11-23T04:44:57.436Z,6.18
2022-11-23T04:47:25.985Z,6.07
2022-11-23T04:49:54.425Z,4.72
2022-11-23T04:52:22.861Z,5.10
2022-11-23T04:54:51.262Z,6.20
2022-11-23T04:57:19.755Z,6.88
2022-11-23T04:59:48.192Z,3.85
2022-11-23T05:02:17.958Z,5.95
2022-11-23T05:04:46.400Z,6.82
2022-11-23T05:07:14.846Z,5.03
2022-11-23T05:09:45.971Z,4.50
2022-11-23T05:12:14.385Z,4.07
2022-11-23T05:14:43.373Z,4.72
2022-11-23T05:17:14.411Z,4.38
2022-11-23T05:19:45.318Z,5.20
2022-11-23T05:22:13.714Z,5.30
2022-11-23T05:24:42.622Z,6.10
2022-11-23T05:27:11.058Z,5.85
2022-11-23T05:29:39.680Z,5.70
2022-11-23T05:32:08.085Z,5.57
2022-11-23T05:34:36.677Z,7.60
2022-11-23T05:37:06.472Z,6.53
2022-11-23T05:39:35.016Z,7.38
2022-11-23T05:42:03.609Z,20.83
2022-11-23T05:44:36.739Z,10.43
2022-11-23T05:47:05.279Z,9.70
2022-11-23T05:49:34.013Z,6.53
2022-11-23T05:52:02.709Z,5.20
2022-11-23T05:54:32.572Z,7.22
2022-11-23T05:57:00.986Z,5.82
2022-11-23T05:59:29.667Z,5.30
2022-11-23T06:01:58.525Z,5.55
2022-11-23T06:04:27.076Z,5.97
2022-11-23T06:06:57.364Z,7.30
2022-11-23T06:09:25.808Z,5.32
2022-11-23T06:11:55.773Z,4.80
2022-11-23T06:14:24.271Z,4.25
2022-11-23T06:16:52.848Z,6.00
2022-11-23T06:19:21.284Z,6.65
2022-11-23T06:21:50.678Z,6.18
2022-11-23T06:24:19.223Z,7.00
2022-11-23T06:26:47.587Z,5.85
2022-11-23T06:29:17.600Z,6.20
2022-11-23T06:31:46.056Z,5.57
2022-11-23T06:34:14.725Z,4.07
2022-11-23T06:36:43.908Z,7.10
2022-11-23T06:39:13.290Z,8.73
2022-11-23T06:41:41.697Z,8.80
2022-11-23T06:44:10.144Z,13.80
2022-11-23T06:46:39.901Z,12.07
2022-11-23T06:49:08.350Z,10.75
2022-11-23T06:51:36.741Z,7.40
2022-11-23T06:54:05.429Z,5.88
2022-11-23T06:56:33.974Z,5.82
2022-11-23T06:59:02.330Z,8.80
2022-11-23T07:01:30.746Z,11.73
2022-11-23T07:04:00.627Z,14.50
2022-11-23T07:06:29.108Z,15.63
2022-11-23T07:08:57.492Z,13.57
2022-11-23T07:11:25.910Z,10.30
2022-11-23T07:13:54.290Z,14.30
2022-11-23T07:16:22.707Z,12.20
2022-11-23T07:18:51.116Z,15.18
2022-11-23T07:21:20.917Z,10.07
2022-11-23T07:23:49.322Z,7.53
2022-11-23T07:26:17.787Z,7.55
2022-11-23T07:28:46.212Z,9.90
2022-11-23T07:31:16.137Z,7.50
2022-11-23T07:33:45.790Z,9.10
2022-11-23T07:36:14.278Z,8.57
2022-11-23T07:38:44.073Z,9.15
2022-11-23T07:41:12.544Z,9.02
2022-11-23T07:43:40.922Z,10.85
2022-11-23T07:46:09.363Z,7.55
2022-11-23T07:48:37.836Z,9.43
2022-11-23T07:51:06.309Z,7.05
2022-11-23T07:53:36.050Z,7.22
2022-11-23T07:56:05.936Z,12.60
2022-11-23T07:58:34.793Z,7.28
2022-11-23T08:01:03.390Z,7.53
2022-11-23T08:03:34.936Z,7.35
2022-11-23T08:06:03.397Z,8.05
2022-11-23T08:08:31.819Z,9.02
2022-11-23T08:11:00.261Z,9.88
2022-11-23T08:13:30.034Z,8.20
2022-11-23T08:15:58.910Z,9.38
2022-11-23T08:18:27.311Z,8.07
2022-11-23T08:20:56.276Z,7.75
2022-11-23T08:23:25.740Z,8.32
2022-11-23T08:25:54.154Z,7.60
2022-11-23T08:28:22.864Z,19.63
2022-11-23T08:30:52.652Z,17.50
2022-11-23T08:33:21.118Z,11.13
2022-11-23T08:35:49.567Z,14.82
2022-11-23T08:38:18.016Z,18.25
2022-11-23T08:40:46.408Z,16.17
2022-11-23T08:43:14.772Z,12.65
2022-11-23T08:45:43.185Z,9.82
2022-11-23T08:48:12.923Z,7.40
2022-11-23T08:50:41.505Z,11.13
2022-11-23T08:53:09.877Z,9.13
2022-11-23T08:55:38.295Z,10.10
2022-11-23T08:58:12.978Z,8.95
2022-11-23T09:00:41.925Z,8.50
2022-11-23T09:03:10.578Z,11.13
2022-11-23T09:05:40.611Z,13.95
2022-11-23T09:08:09.136Z,12.20
2022-11-23T09:10:38.072Z,10.38
2022-11-23T09:13:06.621Z,8.00
2022-11-23T09:15:35.075Z,9.32
2022-11-23T09:18:03.475Z,8.68
2022-11-23T09:20:31.939Z,9.25
2022-11-23T09:23:01.709Z,7.85
2022-11-23T09:25:30.215Z,9.55
2022-11-23T09:27:59.683Z,6.82
2022-11-23T09:30:28.192Z,4.85
2022-11-23T09:32:57.746Z,5.38
2022-11-23T09:35:26.260Z,7.43
2022-11-23T09:37:57.449Z,8.57
2022-11-23T09:40:27.617Z,8.77
2022-11-23T09:43:02.657Z,13.25
2022-11-23T09:45:36.835Z,11.57
2022-11-23T09:48:16.228Z,8.20
2022-11-23T09:50:48.333Z,5.57
2022-11-23T09:53:19.753Z,7.20
2022-11-23T09:55:50.466Z,5.93
2022-11-23T09:58:20.291Z,6.13
2022-11-23T10:00:50.477Z,5.95
2022-11-23T10:03:19.622Z,6.82
2022-11-23T10:05:52.112Z,7.80
2022-11-23T10:08:27.171Z,6.65
2022-11-23T10:11:02.354Z,10.93
2022-11-23T10:13:35.926Z,7.40
2022-11-23T10:16:17.591Z,5.97
2022-11-23T10:18:51.240Z,8.55
2022-11-23T10:21:24.376Z,7.57
2022-11-23T10:23:56.735Z,8.05
2022-11-23T10:26:29.812Z,8.70
2022-11-23T10:28:59.540Z,8.15
2022-11-23T10:31:27.957Z,6.90
2022-11-23T10:33:58.721Z,8.65
2022-11-23T10:36:29.753Z,6.82
2022-11-23T10:38:59.712Z,8.20
2022-11-23T10:41:41.979Z,6.78
2022-11-23T10:44:20.127Z,9.65
2022-11-23T10:46:48.639Z,11.35
2022-11-23T10:49:23.577Z,7.38
2022-11-23T10:51:54.767Z,11.07
2022-11-23T10:54:31.770Z,10.40
2022-11-23T10:57:03.392Z,8.88
2022-11-23T10:59:39.463Z,10.18
2022-11-23T11:02:18.759Z,8.38
2022-11-23T11:04:47.782Z,8.73
2022-11-23T11:07:28.920Z,10.10
2022-11-23T11:09:58.524Z,11.88
2022-11-23T11:12:29.062Z,11.13
2022-11-23T11:15:05.280Z,10.18
2022-11-23T11:17:40.081Z,9.77
2022-11-23T11:20:23.654Z,7.45
2022-11-23T11:22:52.301Z,8.98
2022-11-23T11:25:29.587Z,6.72
2022-11-23T11:28:00.248Z,10.10
2022-11-23T11:30:34.089Z,3.83
2022-11-23T11:35:34.839Z,5.88
2022-11-23T11:38:06.107Z,8.27
2022-11-23T11:40:37.044Z,7.15
2022-11-23T11:43:10.046Z,13.02
2022-11-23T11:45:39.439Z,9.48
2022-11-23T11:48:10.706Z,4.45
2022-11-23T11:50:43.581Z,6.53
2022-11-23T11:53:13.994Z,4.13
2022-11-23T11:55:48.607Z,3.28
2022-11-23T11:58:19.374Z,4.28
2022-11-23T12:00:49.590Z,4.53
2022-11-23T12:03:22.193Z,4.57
2022-11-23T12:05:55.028Z,4.45
2022-11-23T12:08:26.644Z,8.48
2022-11-23T12:10:57.043Z,3.63
2022-11-23T12:13:30.189Z,4.47
2022-11-23T12:16:07.456Z,7.18
2022-11-23T12:19:00.810Z,5.72
2022-11-23T12:21:40.711Z,4.82
2022-11-23T12:24:15.695Z,5.90
2022-11-23T12:26:52.163Z,7.00
2022-11-23T12:29:33.448Z,5.43
2022-11-23T12:32:08.684Z,4.32
2022-11-23T12:34:55.633Z,3.65
2022-11-23T12:37:38.008Z,6.30
2022-11-23T12:40:20.798Z,6.07
2022-11-23T12:42:52.692Z,5.43
2022-11-23T12:45:28.664Z,5.13
2022-11-23T12:48:01.902Z,4.75
2022-11-23T12:50:35.365Z,3.80
2022-11-23T12:53:15.860Z,6.60
2022-11-23T12:55:48.635Z,3.67
2022-11-23T12:58:21.541Z,3.70
2022-11-23T13:00:53.084Z,4.87
2022-11-23T13:03:31.457Z,4.55
2022-11-23T13:06:15.457Z,6.80
2022-11-23T13:09:01.626Z,2.05
2022-11-23T13:11:38.511Z,4.30
2022-11-23T13:14:15.407Z,4.28
2022-11-23T13:16:57.767Z,6.78
2022-11-23T13:19:40.682Z,4.63
2022-11-23T13:22:12.779Z,2.20
2022-11-23T13:24:43.076Z,3.92
2022-11-23T13:27:31.600Z,4.97
2022-11-23T13:30:01.397Z,4.78
2022-11-23T13:32:46.274Z,5.10
2022-11-23T13:35:29.539Z,6.15
2022-11-23T13:38:16.830Z,4.68
2022-11-23T13:40:46.202Z,6.65
2022-11-23T13:43:17.601Z,7.78
2022-11-23T13:45:46.355Z,7.22
2022-11-23T13:51:07.051Z,5.85
2022-11-23T13:53:36.055Z,5.07
2022-11-23T13:56:20.196Z,6.25
2022-11-23T14:01:36.936Z,5.40
2022-11-23T14:04:20.266Z,6.63
2022-11-23T14:06:52.469Z,5.70
2022-11-23T14:09:23.753Z,5.15
2022-11-23T14:11:55.059Z,5.70
2022-11-23T14:14:25.377Z,5.28
2022-11-23T14:17:09.281Z,6.65
2022-11-23T14:22:10.834Z,7.53
2022-11-23T14:24:46.647Z,5.18
2022-11-23T14:30:28.586Z,4.13
2022-11-23T14:33:04.266Z,2.67
2022-11-23T14:35:35.150Z,5.22
2022-11-23T14:38:31.978Z,6.85
2022-11-23T14:41:06.478Z,4.20
2022-11-23T14:43:36.604Z,3.45
2022-11-23T14:46:07.282Z,4.50
2022-11-23T14:48:36.541Z,5.22
2022-11-23T14:51:06.274Z,5.43
2022-11-23T14:53:41.510Z,4.95
2022-11-23T14:56:23.086Z,3.53
2022-11-23T14:58:52.117Z,3.08
2022-11-23T15:01:22.547Z,3.83
2022-11-23T15:03:57.766Z,3.35
2022-11-23T15:06:29.055Z,7.10
2022-11-23T15:09:06.693Z,6.72
2022-11-23T15:11:37.011Z,5.70
2022-11-23T15:14:05.731Z,4.72
2022-11-23T15:16:42.619Z,5.13
2022-11-23T15:19:21.233Z,4.15
2022-11-23T15:21:49.828Z,8.57
2022-11-23T15:24:24.922Z,6.90
2022-11-23T15:26:53.716Z,6.22
2022-11-23T15:29:34.038Z,5.63
2022-11-23T15:34:52.024Z,7.28
2022-11-23T15:37:20.649Z,6.57
2022-11-23T15:39:50.804Z,6.40
2022-11-23T15:42:20.462Z,6.35
2022-11-23T15:44:51.057Z,7.32
2022-11-23T15:47:23.067Z,2.88
2022-11-23T15:49:52.002Z,7.45
2022-11-23T15:52:21.731Z,5.18
2022-11-23T15:54:51.720Z,7.75
2022-11-23T15:57:21.681Z,7.32
2022-11-23T15:59:51.206Z,5.93
2022-11-23T16:02:22.706Z,7.30
2022-11-23T16:04:51.425Z,7.75
2022-11-23T16:07:23.835Z,6.32
2022-11-23T16:10:05.030Z,7.07
2022-11-23T16:12:35.565Z,5.38
2022-11-23T16:15:21.606Z,6.82
2022-11-23T16:17:50.079Z,9.73
2022-11-23T16:20:18.598Z,16.08
2022-11-23T16:22:51.239Z,11.07
2022-11-23T16:25:27.120Z,8.63
2022-11-23T16:28:00.038Z,11.77
2022-11-23T16:30:30.961Z,8.83
2022-11-23T16:33:00.511Z,10.77
2022-11-23T16:35:29.096Z,9.00
2022-11-23T16:37:57.666Z,9.57
2022-11-23T16:40:27.726Z,11.40
2022-11-23T16:42:56.320Z,8.38
2022-11-23T16:45:25.208Z,8.73
2022-11-23T16:47:54.705Z,7.55
2022-11-23T16:50:23.242Z,10.27
2022-11-23T16:52:51.841Z,9.30
2022-11-23T16:55:23.324Z,5.38
2022-11-23T16:57:53.372Z,5.93
2022-11-23T17:00:23.054Z,7.57
2022-11-23T17:02:52.665Z,8.32
2022-11-23T17:05:23.987Z,6.40
2022-11-23T17:07:52.751Z,7.15
2022-11-23T17:10:21.268Z,8.57
2022-11-23T17:12:52.332Z,9.80
2022-11-23T17:15:23.528Z,6.78
2022-11-23T17:17:52.178Z,6.85
2022-11-23T17:20:20.851Z,7.97
2022-11-23T17:22:51.943Z,9.90
2022-11-23T17:25:20.568Z,6.75
2022-11-23T17:27:49.178Z,5.97
2022-11-23T17:30:18.918Z,8.50
2022-11-23T17:32:48.951Z,7.43
2022-11-23T17:35:18.348Z,9.60
2022-11-23T17:37:47.474Z,8.15
2022-11-23T17:40:16.881Z,7.60
2022-11-23T17:42:45.637Z,8.27
2022-11-23T17:45:14.465Z,8.82
2022-11-23T17:47:43.999Z,11.82
2022-11-23T17:50:17.693Z,9.27
2022-11-23T17:55:15.072Z,11.30
2022-11-23T17:57:43.869Z,11.90
2022-11-23T18:00:16.852Z,11.52
2022-11-23T18:02:45.379Z,9.75
2022-11-23T18:05:21.090Z,12.55
2022-11-23T18:07:50.262Z,10.77
2022-11-23T18:10:19.155Z,10.52
2022-11-23T18:12:47.677Z,12.15
2022-11-23T18:15:16.351Z,13.68
2022-11-23T18:18:06.385Z,10.50
2022-11-23T18:20:36.888Z,9.48
2022-11-23T18:23:05.471Z,10.90
2022-11-23T18:25:34.218Z,9.85
2022-11-23T18:28:02.608Z,19.50
2022-11-23T18:30:31.051Z,16.77
2022-11-23T18:32:59.597Z,15.85
2022-11-23T18:35:28.060Z,11.85
2022-11-23T18:37:57.871Z,11.43
2022-11-23T18:40:26.430Z,10.52
2022-11-23T18:42:54.907Z,15.82
2022-11-23T18:45:23.582Z,18.35
2022-11-23T18:47:52.299Z,19.08
2022-11-23T18:50:23.818Z,15.70
2022-11-23T18:52:53.007Z,14.40
2022-11-23T18:55:22.812Z,15.18
2022-11-23T18:57:54.480Z,14.98
2022-11-23T19:00:23.122Z,20.73
2022-11-23T19:02:55.427Z,11.38
2022-11-23T19:05:24.749Z,11.48
2022-11-23T19:07:53.550Z,14.18
2022-11-23T19:10:23.410Z,13.23
2022-11-23T19:12:52.365Z,13.07
2022-11-23T19:15:21.039Z,10.80
2022-11-23T19:17:49.656Z,12.38
2022-11-23T19:20:20.614Z,11.73
2022-11-23T19:22:49.158Z,11.73
2022-11-23T19:25:17.712Z,12.40
2022-11-23T19:27:49.073Z,10.60
2022-11-23T19:30:18.211Z,12.15
2022-11-23T19:32:48.823Z,10.52
2022-11-23T19:35:17.292Z,12.43
2022-11-23T19:37:45.767Z,12.55
2022-11-23T19:40:14.489Z,11.52
2022-11-23T19:42:43.653Z,8.18
2022-11-23T19:45:13.696Z,9.90
2022-11-23T19:47:42.257Z,9.85
2022-11-23T19:50:11.290Z,6.80
2022-11-23T19:53:09.758Z,12.45
2022-11-23T19:55:28.401Z,8.40
2022-11-23T19:57:57.930Z,8.98
2022-11-23T20:00:27.935Z,8.73
2022-11-23T20:02:59.399Z,8.18
2022-11-23T20:05:28.346Z,6.90
2022-11-23T20:07:56.900Z,6.32
2022-11-23T20:10:25.542Z,7.72
2022-11-23T20:12:54.004Z,8.68
2022-11-23T20:15:22.503Z,11.32
2022-11-23T20:17:54.321Z,11.30
2022-11-23T20:20:23.015Z,9.50
2022-11-23T20:22:51.475Z,6.88
2022-11-23T20:25:19.979Z,8.90
2022-11-23T20:27:48.541Z,6.53
2022-11-23T20:30:19.126Z,7.90
2022-11-23T20:32:51.702Z,7.32
2022-11-23T20:35:21.884Z,7.03
2022-11-23T20:37:50.370Z,6.03
2022-11-23T20:40:18.951Z,8.88
2022-11-23T20:42:47.438Z,7.30
2022-11-23T20:45:15.933Z,10.57
2022-11-23T20:47:44.440Z,6.97
2022-11-23T20:50:13.025Z,8.90
2022-11-23T20:52:43.104Z,8.35
2022-11-23T20:55:25.680Z,8.82
2022-11-23T20:58:06.700Z,6.82
2022-11-23T21:00:35.173Z,9.10
2022-11-23T21:03:03.691Z,6.05
2022-11-23T21:05:32.360Z,5.60
2022-11-23T21:08:02.225Z,7.05
2022-11-23T21:10:48.379Z,7.00
2022-11-23T21:13:48.910Z,6.15
2022-11-23T21:16:18.402Z,5.22
2022-11-23T21:18:46.921Z,6.00
2022-11-23T21:21:15.659Z,7.18
2022-11-23T21:23:50.891Z,6.75
2022-11-23T21:26:20.742Z,7.22
2022-11-23T21:28:49.354Z,9.05
2022-11-23T21:31:17.895Z,7.55
2022-11-23T21:33:53.762Z,6.15
2022-11-23T21:36:23.466Z,5.63
2022-11-23T21:38:53.378Z,7.57
2022-11-23T21:41:24.383Z,7.25
2022-11-23T21:43:55.842Z,6.53
2022-11-23T21:46:24.829Z,5.57
2022-11-23T21:48:54.714Z,6.75
2022-11-23T21:51:26.240Z,6.47
2022-11-23T21:53:56.482Z,8.07
2022-11-23T21:56:25.049Z,6.80
2022-11-23T21:58:53.509Z,4.63
2022-11-23T22:01:23.074Z,7.25
2022-11-23T22:03:53.378Z,4.10
2022-11-23T22:06:22.124Z,6.55
2022-11-23T22:08:52.085Z,5.00
2022-11-23T22:11:23.077Z,5.13
2022-11-23T22:13:54.472Z,5.38
2022-11-23T22:16:23.966Z,5.88
2022-11-23T22:18:55.821Z,6.35
2022-11-23T22:21:25.443Z,5.18
2022-11-23T22:23:54.288Z,5.53
2022-11-23T22:26:24.644Z,6.05
2022-11-23T22:28:53.570Z,5.70
2022-11-23T22:31:23.624Z,5.45
2022-11-23T22:33:52.388Z,5.63
2022-11-23T22:36:21.777Z,4.88
2022-11-23T22:38:50.500Z,6.15
2022-11-23T22:41:19.265Z,7.53
2022-11-23T22:43:49.158Z,6.78
2022-11-23T22:46:19.010Z,6.22
2022-11-23T22:48:48.350Z,6.18
2022-11-23T22:51:17.638Z,6.30
2022-11-23T22:53:46.355Z,6.05
2022-11-23T22:56:15.705Z,6.88
2022-11-23T22:58:44.605Z,7.15
2022-11-23T23:01:15.486Z,6.93
2022-11-23T23:03:44.423Z,7.55
2022-11-23T23:06:16.352Z,6.13
2022-11-23T23:08:45.690Z,7.43
2022-11-23T23:11:14.960Z,7.32
2022-11-23T23:13:43.567Z,6.30
2022-11-23T23:16:12.876Z,6.60
2022-11-23T23:18:43.217Z,6.00
2022-11-23T23:21:14.254Z,7.28
2022-11-23T23:23:43.351Z,7.18
2022-11-23T23:26:12.336Z,8.05
2022-11-23T23:28:40.941Z,7.07
2022-11-23T23:31:10.010Z,7.72
2022-11-23T23:33:38.973Z,6.75
2022-11-23T23:36:12.897Z,5.97
2022-11-23T23:38:41.908Z,5.53
2022-11-23T23:41:11.342Z,7.15
2022-11-23T23:43:39.867Z,6.40
2022-11-23T23:46:10.425Z,6.63
2022-11-23T23:48:39.753Z,6.43
2022-11-23T23:51:10.189Z,7.72
2022-11-23T23:53:38.797Z,6.18
2022-11-23T23:56:08.764Z,7.00
2022-11-23T23:58:37.433Z,6.57
